sensor_id;sensor_type;location;lat;lon;timestamp;pressure;altitude;pressure_sealevel;temperature;humidity
40372;BME280;28564;53.346;-6.554;2023-03-18T00:01:29;99218.02;;;13.32;52.11
40372;BME280;28564;53.346;-6.554;2023-03-18T00:03:56;99224.73;;;13.39;52.04
40372;BME280;28564;53.346;-6.554;2023-03-18T00:06:23;99228.36;;;13.66;51.96
40372;BME280;28564;53.346;-6.554;2023-03-18T00:08:50;99231.47;;;13.71;51.96
40372;BME280;28564;53.346;-6.554;2023-03-18T00:11:19;99231.13;;;13.29;51.86
40372;BME280;28564;53.346;-6.554;2023-03-18T00:13:47;99228.49;;;13.34;51.82
40372;BME280;28564;53.346;-6.554;2023-03-18T00:16:15;99231.88;;;13.38;51.78
40372;BME280;28564;53.346;-6.554;2023-03-18T00:18:43;99233.60;;;13.64;51.73
40372;BME280;28564;53.346;-6.554;2023-03-18T00:21:10;99235.10;;;13.88;51.68
40372;BME280;28564;53.346;-6.554;2023-03-18T00:23:38;99239.26;;;13.43;51.61
40372;BME280;28564;53.346;-6.554;2023-03-18T00:26:05;99237.69;;;13.41;51.58
40372;BME280;28564;53.346;-6.554;2023-03-18T00:28:32;99240.68;;;13.37;51.64
40372;BME280;28564;53.346;-6.554;2023-03-18T00:31:04;99243.36;;;13.36;51.77
40372;BME280;28564;53.346;-6.554;2023-03-18T00:33:32;99247.26;;;13.38;51.87
40372;BME280;28564;53.346;-6.554;2023-03-18T00:36:00;99252.18;;;13.39;51.93
40372;BME280;28564;53.346;-6.554;2023-03-18T00:38:27;99254.50;;;13.45;51.94
40372;BME280;28564;53.346;-6.554;2023-03-18T00:40:54;99256.90;;;13.95;51.85
40372;BME280;28564;53.346;-6.554;2023-03-18T00:43:22;99256.79;;;13.50;51.84
40372;BME280;28564;53.346;-6.554;2023-03-18T00:45:50;99258.68;;;13.53;51.85
40372;BME280;28564;53.346;-6.554;2023-03-18T00:48:17;99256.96;;;13.57;51.80
40372;BME280;28564;53.346;-6.554;2023-03-18T00:50:44;99257.12;;;13.59;51.77
40372;BME280;28564;53.346;-6.554;2023-03-18T00:53:12;99255.80;;;13.60;51.71
40372;BME280;28564;53.346;-6.554;2023-03-18T00:55:39;99258.20;;;13.34;51.65
40372;BME280;28564;53.346;-6.554;2023-03-18T00:58:07;99257.24;;;13.59;51.62
40372;BME280;28564;53.346;-6.554;2023-03-18T01:00:34;99258.46;;;13.58;51.64
40372;BME280;28564;53.346;-6.554;2023-03-18T01:03:02;99257.31;;;13.77;51.77
40372;BME280;28564;53.346;-6.554;2023-03-18T01:05:30;99257.45;;;13.55;51.86
40372;BME280;28564;53.346;-6.554;2023-03-18T01:07:58;99255.72;;;13.27;51.93
40372;BME280;28564;53.346;-6.554;2023-03-18T01:10:26;99259.46;;;13.54;51.95
40372;BME280;28564;53.346;-6.554;2023-03-18T01:12:53;99262.87;;;13.78;51.96
40372;BME280;28564;53.346;-6.554;2023-03-18T01:15:21;99261.21;;;13.57;51.97
40372;BME280;28564;53.346;-6.554;2023-03-18T01:17:48;99261.28;;;13.58;51.98
40372;BME280;28564;53.346;-6.554;2023-03-18T01:20:17;99261.63;;;13.61;52.01
40372;BME280;28564;53.346;-6.554;2023-03-18T01:22:45;99264.46;;;13.86;52.06
40372;BME280;28564;53.346;-6.554;2023-03-18T01:25:13;99267.11;;;13.66;52.07
40372;BME280;28564;53.346;-6.554;2023-03-18T01:27:42;99268.68;;;13.41;52.07
40372;BME280;28564;53.346;-6.554;2023-03-18T01:30:11;99270.76;;;13.70;51.99
40372;BME280;28564;53.346;-6.554;2023-03-18T01:32:39;99271.81;;;13.70;52.00
40372;BME280;28564;53.346;-6.554;2023-03-18T01:35:07;99271.56;;;13.70;52.00
40372;BME280;28564;53.346;-6.554;2023-03-18T01:37:35;99273.63;;;13.67;52.01
40372;BME280;28564;53.346;-6.554;2023-03-18T01:40:04;99275.36;;;13.66;52.04
40372;BME280;28564;53.346;-6.554;2023-03-18T01:42:32;99275.87;;;13.64;52.09
40372;BME280;28564;53.346;-6.554;2023-03-18T01:45:18;99277.08;;;13.64;52.11
40372;BME280;28564;53.346;-6.554;2023-03-18T01:47:48;99276.65;;;13.64;52.01
40372;BME280;28564;53.346;-6.554;2023-03-18T01:50:19;99277.40;;;13.30;51.82
40372;BME280;28564;53.346;-6.554;2023-03-18T01:52:50;99277.89;;;13.41;51.80
40372;BME280;28564;53.346;-6.554;2023-03-18T01:55:20;99276.63;;;13.52;51.98
40372;BME280;28564;53.346;-6.554;2023-03-18T01:57:49;99279.50;;;13.45;52.11
40372;BME280;28564;53.346;-6.554;2023-03-18T02:00:18;99282.20;;;13.19;52.19
40372;BME280;28564;53.346;-6.554;2023-03-18T02:02:47;99281.19;;;13.59;52.26
40372;BME280;28564;53.346;-6.554;2023-03-18T02:05:16;99279.02;;;13.30;52.29
40372;BME280;28564;53.346;-6.554;2023-03-18T02:07:45;99282.43;;;13.46;52.30
40372;BME280;28564;53.346;-6.554;2023-03-18T02:10:14;99286.34;;;13.16;52.29
40372;BME280;28564;53.346;-6.554;2023-03-18T02:12:44;99288.55;;;13.31;52.33
40372;BME280;28564;53.346;-6.554;2023-03-18T02:15:16;99292.65;;;13.23;52.36
40372;BME280;28564;53.346;-6.554;2023-03-18T02:17:46;99295.02;;;12.95;52.52
40372;BME280;28564;53.346;-6.554;2023-03-18T02:20:23;99302.58;;;13.13;52.57
40372;BME280;28564;53.346;-6.554;2023-03-18T02:22:57;99303.46;;;13.07;52.53
40372;BME280;28564;53.346;-6.554;2023-03-18T02:25:37;99301.91;;;12.85;52.43
40372;BME280;28564;53.346;-6.554;2023-03-18T02:28:08;99304.38;;;12.81;52.54
40372;BME280;28564;53.346;-6.554;2023-03-18T02:30:40;99305.22;;;12.97;52.66
40372;BME280;28564;53.346;-6.554;2023-03-18T02:33:10;99313.46;;;12.93;52.83
40372;BME280;28564;53.346;-6.554;2023-03-18T02:35:38;99313.72;;;12.90;52.96
40372;BME280;28564;53.346;-6.554;2023-03-18T02:38:06;99317.71;;;12.88;53.18
40372;BME280;28564;53.346;-6.554;2023-03-18T02:40:35;99321.76;;;12.93;53.41
40372;BME280;28564;53.346;-6.554;2023-03-18T02:43:21;99316.34;;;13.00;53.35
40372;BME280;28564;53.346;-6.554;2023-03-18T02:45:59;99316.45;;;13.08;53.47
40372;BME280;28564;53.346;-6.554;2023-03-18T02:48:35;99316.41;;;13.16;53.40
40372;BME280;28564;53.346;-6.554;2023-03-18T02:51:04;99319.26;;;13.02;53.32
40372;BME280;28564;53.346;-6.554;2023-03-18T02:53:33;99325.40;;;13.33;53.23
40372;BME280;28564;53.346;-6.554;2023-03-18T02:56:01;99329.38;;;12.94;53.14
40372;BME280;28564;53.346;-6.554;2023-03-18T02:58:28;99330.01;;;13.23;52.91
40372;BME280;28564;53.346;-6.554;2023-03-18T03:00:55;99330.06;;;13.26;52.90
40372;BME280;28564;53.346;-6.554;2023-03-18T03:03:23;99332.77;;;13.28;52.81
40372;BME280;28564;53.346;-6.554;2023-03-18T03:05:50;99334.77;;;13.31;52.77
40372;BME280;28564;53.346;-6.554;2023-03-18T03:08:18;99338.96;;;13.35;52.68
40372;BME280;28564;53.346;-6.554;2023-03-18T03:10:45;99339.62;;;13.37;52.65
40372;BME280;28564;53.346;-6.554;2023-03-18T03:13:13;99342.34;;;13.40;52.65
40372;BME280;28564;53.346;-6.554;2023-03-18T03:15:40;99342.08;;;13.21;52.57
40372;BME280;28564;53.346;-6.554;2023-03-18T03:18:07;99344.93;;;13.45;52.53
40372;BME280;28564;53.346;-6.554;2023-03-18T03:20:35;99347.10;;;13.24;52.50
40372;BME280;28564;53.346;-6.554;2023-03-18T03:23:04;99346.35;;;13.25;52.47
40372;BME280;28564;53.346;-6.554;2023-03-18T03:25:32;99346.59;;;13.26;52.39
40372;BME280;28564;53.346;-6.554;2023-03-18T03:28:00;99347.54;;;13.24;52.32
40372;BME280;28564;53.346;-6.554;2023-03-18T03:30:27;99349.64;;;13.22;52.29
40372;BME280;28564;53.346;-6.554;2023-03-18T03:32:55;99350.41;;;13.21;52.29
40372;BME280;28564;53.346;-6.554;2023-03-18T03:35:24;99352.57;;;13.20;52.22
40372;BME280;28564;53.346;-6.554;2023-03-18T03:37:52;99353.32;;;13.21;52.29
40372;BME280;28564;53.346;-6.554;2023-03-18T03:40:20;99353.17;;;13.22;52.24
40372;BME280;28564;53.346;-6.554;2023-03-18T03:42:48;99354.36;;;13.45;52.23
40372;BME280;28564;53.346;-6.554;2023-03-18T03:45:17;99356.48;;;13.45;52.17
40372;BME280;28564;53.346;-6.554;2023-03-18T03:47:44;99357.55;;;13.25;52.26
40372;BME280;28564;53.346;-6.554;2023-03-18T03:50:12;99356.37;;;13.26;52.18
40372;BME280;28564;53.346;-6.554;2023-03-18T03:52:40;99354.85;;;13.29;52.16
40372;BME280;28564;53.346;-6.554;2023-03-18T03:55:10;99354.77;;;13.51;52.07
40372;BME280;28564;53.346;-6.554;2023-03-18T03:57:38;99357.87;;;13.50;52.04
40372;BME280;28564;53.346;-6.554;2023-03-18T04:00:10;99362.09;;;13.50;52.06
40372;BME280;28564;53.346;-6.554;2023-03-18T04:02:37;99358.76;;;13.28;52.09
40372;BME280;28564;53.346;-6.554;2023-03-18T04:05:05;99360.38;;;13.29;52.10
40372;BME280;28564;53.346;-6.554;2023-03-18T04:07:32;99361.97;;;13.29;52.06
40372;BME280;28564;53.346;-6.554;2023-03-18T04:09:59;99360.33;;;13.74;52.06
40372;BME280;28564;53.346;-6.554;2023-03-18T04:12:26;99359.68;;;13.73;52.02
40372;BME280;28564;53.346;-6.554;2023-03-18T04:14:54;99358.94;;;13.27;51.95
40372;BME280;28564;53.346;-6.554;2023-03-18T04:17:21;99361.64;;;13.45;51.94
40372;BME280;28564;53.346;-6.554;2023-03-18T04:19:48;99363.19;;;13.20;52.11
40372;BME280;28564;53.346;-6.554;2023-03-18T04:22:15;99365.79;;;13.19;52.16
40372;BME280;28564;53.346;-6.554;2023-03-18T04:24:42;99364.05;;;13.19;52.16
40372;BME280;28564;53.346;-6.554;2023-03-18T04:27:10;99364.41;;;13.66;52.21
40372;BME280;28564;53.346;-6.554;2023-03-18T04:29:38;99362.65;;;13.23;52.12
40372;BME280;28564;53.346;-6.554;2023-03-18T04:32:05;99361.19;;;13.67;52.11
40372;BME280;28564;53.346;-6.554;2023-03-18T04:34:32;99366.66;;;13.22;52.06
40372;BME280;28564;53.346;-6.554;2023-03-18T04:37:00;99368.56;;;13.23;51.99
40372;BME280;28564;53.346;-6.554;2023-03-18T04:39:27;99370.71;;;13.17;52.05
40372;BME280;28564;53.346;-6.554;2023-03-18T04:41:54;99371.18;;;13.14;52.16
40372;BME280;28564;53.346;-6.554;2023-03-18T04:44:21;99372.18;;;13.35;52.15
40372;BME280;28564;53.346;-6.554;2023-03-18T04:46:48;99369.77;;;13.31;52.23
40372;BME280;28564;53.346;-6.554;2023-03-18T04:49:16;99370.60;;;13.27;52.29
40372;BME280;28564;53.346;-6.554;2023-03-18T04:51:43;99369.58;;;13.48;52.38
40372;BME280;28564;53.346;-6.554;2023-03-18T04:54:10;99368.24;;;13.26;52.36
40372;BME280;28564;53.346;-6.554;2023-03-18T04:56:38;99368.41;;;13.26;52.36
40372;BME280;28564;53.346;-6.554;2023-03-18T04:59:05;99370.35;;;13.49;52.35
40372;BME280;28564;53.346;-6.554;2023-03-18T05:01:33;99371.67;;;13.49;52.30
40372;BME280;28564;53.346;-6.554;2023-03-18T05:04:00;99376.07;;;13.02;52.21
40372;BME280;28564;53.346;-6.554;2023-03-18T05:06:28;99375.50;;;13.42;52.17
40372;BME280;28564;53.346;-6.554;2023-03-18T05:08:57;99379.35;;;12.92;52.24
40372;BME280;28564;53.346;-6.554;2023-03-18T05:11:25;99380.59;;;13.32;52.30
40372;BME280;28564;53.346;-6.554;2023-03-18T05:13:53;99381.25;;;13.05;52.35
40372;BME280;28564;53.346;-6.554;2023-03-18T05:16:21;99383.87;;;13.03;52.40
40372;BME280;28564;53.346;-6.554;2023-03-18T05:18:48;99387.94;;;13.23;52.50
40372;BME280;28564;53.346;-6.554;2023-03-18T05:21:15;99389.27;;;13.23;52.53
40372;BME280;28564;53.346;-6.554;2023-03-18T05:23:42;99389.26;;;13.24;52.52
40372;BME280;28564;53.346;-6.554;2023-03-18T05:26:09;99388.51;;;12.79;52.45
40372;BME280;28564;53.346;-6.554;2023-03-18T05:28:37;99390.12;;;13.22;52.43
40372;BME280;28564;53.346;-6.554;2023-03-18T05:31:05;99392.70;;;12.96;52.41
40372;BME280;28564;53.346;-6.554;2023-03-18T05:33:32;99395.03;;;13.13;52.35
40372;BME280;28564;53.346;-6.554;2023-03-18T05:35:59;99398.51;;;12.85;52.26
40372;BME280;28564;53.346;-6.554;2023-03-18T05:38:27;99403.16;;;12.96;52.23
40372;BME280;28564;53.346;-6.554;2023-03-18T05:40:54;99400.60;;;12.64;52.24
40372;BME280;28564;53.346;-6.554;2023-03-18T05:43:21;99409.32;;;12.74;52.33
40372;BME280;28564;53.346;-6.554;2023-03-18T05:45:48;99409.88;;;12.66;52.56
40372;BME280;28564;53.346;-6.554;2023-03-18T05:48:15;99413.00;;;12.60;52.75
40372;BME280;28564;53.346;-6.554;2023-03-18T05:50:43;99417.10;;;12.59;52.83
40372;BME280;28564;53.346;-6.554;2023-03-18T05:53:11;99418.69;;;12.56;52.76
40372;BME280;28564;53.346;-6.554;2023-03-18T05:55:38;99419.42;;;12.50;52.76
40372;BME280;28564;53.346;-6.554;2023-03-18T05:58:06;99420.56;;;12.46;52.84
40372;BME280;28564;53.346;-6.554;2023-03-18T06:00:33;99421.18;;;12.44;52.96
40372;BME280;28564;53.346;-6.554;2023-03-18T06:03:01;99422.06;;;12.46;53.02
40372;BME280;28564;53.346;-6.554;2023-03-18T06:05:30;99428.25;;;12.49;52.96
40372;BME280;28564;53.346;-6.554;2023-03-18T06:07:58;99431.46;;;12.52;52.82
40372;BME280;28564;53.346;-6.554;2023-03-18T06:10:25;99432.90;;;12.50;52.65
40372;BME280;28564;53.346;-6.554;2023-03-18T06:12:53;99430.02;;;12.50;52.57
40372;BME280;28564;53.346;-6.554;2023-03-18T06:15:21;99430.58;;;12.48;52.52
40372;BME280;28564;53.346;-6.554;2023-03-18T06:17:48;99434.09;;;12.45;52.49
40372;BME280;28564;53.346;-6.554;2023-03-18T06:20:17;99437.02;;;12.43;52.48
40372;BME280;28564;53.346;-6.554;2023-03-18T06:22:45;99446.52;;;12.41;52.49
40372;BME280;28564;53.346;-6.554;2023-03-18T06:25:12;99448.99;;;12.39;52.57
40372;BME280;28564;53.346;-6.554;2023-03-18T06:27:39;99450.70;;;12.42;52.60
40372;BME280;28564;53.346;-6.554;2023-03-18T06:30:08;99453.11;;;12.46;52.59
40372;BME280;28564;53.346;-6.554;2023-03-18T06:32:36;99458.86;;;12.48;52.28
40372;BME280;28564;53.346;-6.554;2023-03-18T06:35:03;99461.08;;;12.49;52.40
40372;BME280;28564;53.346;-6.554;2023-03-18T06:37:31;99463.44;;;12.53;52.33
40372;BME280;28564;53.346;-6.554;2023-03-18T06:39:58;99468.10;;;12.54;52.20
40372;BME280;28564;53.346;-6.554;2023-03-18T06:42:25;99474.42;;;12.56;52.24
40372;BME280;28564;53.346;-6.554;2023-03-18T06:44:52;99477.54;;;12.59;52.24
40372;BME280;28564;53.346;-6.554;2023-03-18T06:47:20;99481.63;;;12.42;51.98
40372;BME280;28564;53.346;-6.554;2023-03-18T06:49:48;99481.22;;;12.65;52.12
40372;BME280;28564;53.346;-6.554;2023-03-18T06:52:16;99486.08;;;12.74;52.02
40372;BME280;28564;53.346;-6.554;2023-03-18T06:54:44;99493.54;;;12.75;51.90
40372;BME280;28564;53.346;-6.554;2023-03-18T06:57:12;99496.20;;;12.77;51.52
40372;BME280;28564;53.346;-6.554;2023-03-18T06:59:39;99499.59;;;12.75;51.68
40372;BME280;28564;53.346;-6.554;2023-03-18T07:02:09;99500.59;;;12.76;51.82
40372;BME280;28564;53.346;-6.554;2023-03-18T07:04:37;99502.97;;;12.58;51.95
40372;BME280;28564;53.346;-6.554;2023-03-18T07:07:04;99508.01;;;12.88;51.88
40372;BME280;28564;53.346;-6.554;2023-03-18T07:09:31;99508.23;;;12.48;51.79
40372;BME280;28564;53.346;-6.554;2023-03-18T07:11:59;99511.26;;;12.98;51.87
40372;BME280;28564;53.346;-6.554;2023-03-18T07:14:27;99513.42;;;12.84;51.84
40372;BME280;28564;53.346;-6.554;2023-03-18T07:16:54;99517.38;;;12.92;51.83
40372;BME280;28564;53.346;-6.554;2023-03-18T07:19:22;99522.24;;;12.81;51.74
40372;BME280;28564;53.346;-6.554;2023-03-18T07:21:49;99525.09;;;12.93;51.35
40372;BME280;28564;53.346;-6.554;2023-03-18T07:24:16;99526.16;;;12.94;51.23
40372;BME280;28564;53.346;-6.554;2023-03-18T07:26:43;99529.91;;;13.20;51.28
40372;BME280;28564;53.346;-6.554;2023-03-18T07:29:11;99535.28;;;13.49;51.25
40372;BME280;28564;53.346;-6.554;2023-03-18T07:31:38;99537.29;;;13.53;51.23
40372;BME280;28564;53.346;-6.554;2023-03-18T07:34:05;99537.94;;;13.39;51.31
40372;BME280;28564;53.346;-6.554;2023-03-18T07:36:32;99532.03;;;13.47;51.24
40372;BME280;28564;53.346;-6.554;2023-03-18T07:38:59;99541.35;;;13.33;51.06
40372;BME280;28564;53.346;-6.554;2023-03-18T07:41:26;99543.27;;;13.39;51.05
40372;BME280;28564;53.346;-6.554;2023-03-18T07:43:54;99545.50;;;13.43;50.98
40372;BME280;28564;53.346;-6.554;2023-03-18T07:46:21;99546.63;;;13.69;50.84
40372;BME280;28564;53.346;-6.554;2023-03-18T07:48:48;99547.73;;;13.48;50.94
40372;BME280;28564;53.346;-6.554;2023-03-18T07:51:15;99549.41;;;13.49;50.98
40372;BME280;28564;53.346;-6.554;2023-03-18T07:53:42;99550.15;;;13.52;50.93
40372;BME280;28564;53.346;-6.554;2023-03-18T07:56:10;99554.43;;;13.56;50.96
40372;BME280;28564;53.346;-6.554;2023-03-18T07:58:37;99558.78;;;13.59;50.96
40372;BME280;28564;53.346;-6.554;2023-03-18T08:01:05;99563.21;;;13.84;51.04
40372;BME280;28564;53.346;-6.554;2023-03-18T08:03:32;99564.14;;;13.67;51.09
40372;BME280;28564;53.346;-6.554;2023-03-18T08:06:00;99566.61;;;13.75;50.98
40372;BME280;28564;53.346;-6.554;2023-03-18T08:08:26;99566.63;;;13.81;50.85
40372;BME280;28564;53.346;-6.554;2023-03-18T08:10:56;99570.09;;;13.88;50.86
40372;BME280;28564;53.346;-6.554;2023-03-18T08:13:24;99573.02;;;13.92;50.87
40372;BME280;28564;53.346;-6.554;2023-03-18T08:15:50;99576.31;;;13.97;50.79
40372;BME280;28564;53.346;-6.554;2023-03-18T08:18:18;99579.45;;;14.04;50.89
40372;BME280;28564;53.346;-6.554;2023-03-18T08:20:45;99582.00;;;14.12;50.83
40372;BME280;28564;53.346;-6.554;2023-03-18T08:23:12;99584.22;;;13.92;50.75
40372;BME280;28564;53.346;-6.554;2023-03-18T08:25:39;99588.51;;;13.76;50.78
40372;BME280;28564;53.346;-6.554;2023-03-18T08:28:06;99593.17;;;14.09;50.75
40372;BME280;28564;53.346;-6.554;2023-03-18T08:30:37;99595.84;;;14.21;50.50
40372;BME280;28564;53.346;-6.554;2023-03-18T08:33:05;99593.62;;;14.52;50.35
40372;BME280;28564;53.346;-6.554;2023-03-18T08:35:32;99599.30;;;14.07;50.33
40372;BME280;28564;53.346;-6.554;2023-03-18T08:38:00;99601.99;;;14.34;50.25
40372;BME280;28564;53.346;-6.554;2023-03-18T08:40:28;99603.76;;;14.58;50.37
40372;BME280;28564;53.346;-6.554;2023-03-18T08:42:55;99606.18;;;14.10;50.44
40372;BME280;28564;53.346;-6.554;2023-03-18T08:45:22;99606.90;;;14.32;50.60
40372;BME280;28564;53.346;-6.554;2023-03-18T08:47:49;99608.64;;;14.16;50.49
40372;BME280;28564;53.346;-6.554;2023-03-18T08:50:16;99613.82;;;14.20;50.49
40372;BME280;28564;53.346;-6.554;2023-03-18T08:52:43;99619.47;;;14.68;50.31
40372;BME280;28564;53.346;-6.554;2023-03-18T08:55:11;99619.78;;;14.38;50.47
40372;BME280;28564;53.346;-6.554;2023-03-18T08:57:38;99619.85;;;14.32;50.71
40372;BME280;28564;53.346;-6.554;2023-03-18T09:00:06;99621.63;;;14.15;50.87
40372;BME280;28564;53.346;-6.554;2023-03-18T09:02:34;99622.50;;;14.24;50.69
40372;BME280;28564;53.346;-6.554;2023-03-18T09:05:01;99622.66;;;14.30;50.74
40372;BME280;28564;53.346;-6.554;2023-03-18T09:07:28;99623.91;;;14.90;50.53
40372;BME280;28564;53.346;-6.554;2023-03-18T09:09:55;99623.95;;;14.72;50.64
40372;BME280;28564;53.346;-6.554;2023-03-18T09:12:22;99624.30;;;14.63;50.40
40372;BME280;28564;53.346;-6.554;2023-03-18T09:14:49;99623.60;;;14.72;50.32
40372;BME280;28564;53.346;-6.554;2023-03-18T09:17:17;99625.59;;;14.88;49.95
40372;BME280;28564;53.346;-6.554;2023-03-18T09:19:44;99631.22;;;14.92;49.96
40372;BME280;28564;53.346;-6.554;2023-03-18T09:22:11;99632.26;;;14.92;49.63
40372;BME280;28564;53.346;-6.554;2023-03-18T09:24:38;99632.22;;;14.83;49.78
40372;BME280;28564;53.346;-6.554;2023-03-18T09:27:06;99636.01;;;15.22;50.07
40372;BME280;28564;53.346;-6.554;2023-03-18T09:29:34;99634.24;;;14.68;50.42
40372;BME280;28564;53.346;-6.554;2023-03-18T09:32:00;99636.82;;;14.75;50.71
40372;BME280;28564;53.346;-6.554;2023-03-18T09:34:28;99640.90;;;14.94;49.98
40372;BME280;28564;53.346;-6.554;2023-03-18T09:36:56;99644.65;;;14.92;50.05
40372;BME280;28564;53.346;-6.554;2023-03-18T09:39:23;99648.40;;;14.94;49.95
40372;BME280;28564;53.346;-6.554;2023-03-18T09:42:02;99650.51;;;14.86;50.22
40372;BME280;28564;53.346;-6.554;2023-03-18T09:44:35;99652.72;;;14.87;50.16
40372;BME280;28564;53.346;-6.554;2023-03-18T09:47:15;99656.06;;;14.48;50.45
40372;BME280;28564;53.346;-6.554;2023-03-18T09:50:00;99657.05;;;14.73;50.51
40372;BME280;28564;53.346;-6.554;2023-03-18T09:52:35;99658.51;;;14.68;50.84
40372;BME280;28564;53.346;-6.554;2023-03-18T09:55:10;99663.27;;;14.81;51.21
40372;BME280;28564;53.346;-6.554;2023-03-18T09:57:40;99663.72;;;15.05;50.72
40372;BME280;28564;53.346;-6.554;2023-03-18T10:00:18;99662.07;;;14.89;50.56
40372;BME280;28564;53.346;-6.554;2023-03-18T10:02:50;99665.59;;;15.18;50.62
40372;BME280;28564;53.346;-6.554;2023-03-18T10:05:24;99670.09;;;15.17;50.69
40372;BME280;28564;53.346;-6.554;2023-03-18T10:07:55;99678.11;;;14.87;51.10
40372;BME280;28564;53.346;-6.554;2023-03-18T10:10:28;99677.31;;;15.10;51.00
40372;BME280;28564;53.346;-6.554;2023-03-18T10:13:03;99675.00;;;14.95;51.39
40372;BME280;28564;53.346;-6.554;2023-03-18T10:15:36;99673.73;;;14.70;52.06
40372;BME280;28564;53.346;-6.554;2023-03-18T10:18:10;99679.99;;;14.52;52.88
40372;BME280;28564;53.346;-6.554;2023-03-18T10:20:50;99683.94;;;14.53;53.13
40372;BME280;28564;53.346;-6.554;2023-03-18T10:23:26;99683.49;;;14.62;53.08
40372;BME280;28564;53.346;-6.554;2023-03-18T10:26:02;99684.15;;;14.69;53.49
40372;BME280;28564;53.346;-6.554;2023-03-18T10:28:40;99687.68;;;14.77;53.15
40372;BME280;28564;53.346;-6.554;2023-03-18T10:31:26;99685.71;;;14.87;52.59
40372;BME280;28564;53.346;-6.554;2023-03-18T10:33:57;99689.64;;;14.94;52.55
40372;BME280;28564;53.346;-6.554;2023-03-18T10:36:29;99687.57;;;15.02;52.50
40372;BME280;28564;53.346;-6.554;2023-03-18T10:38:59;99691.24;;;14.88;52.48
40372;BME280;28564;53.346;-6.554;2023-03-18T10:41:30;99695.68;;;15.26;52.42
40372;BME280;28564;53.346;-6.554;2023-03-18T10:44:02;99695.29;;;15.03;51.98
40372;BME280;28564;53.346;-6.554;2023-03-18T10:46:35;99695.43;;;15.03;52.29
40372;BME280;28564;53.346;-6.554;2023-03-18T10:49:06;99694.59;;;15.04;51.76
40372;BME280;28564;53.346;-6.554;2023-03-18T10:51:42;99697.80;;;15.32;51.71
40372;BME280;28564;53.346;-6.554;2023-03-18T10:54:17;99701.56;;;15.13;52.06
40372;BME280;28564;53.346;-6.554;2023-03-18T10:56:46;99699.96;;;15.53;51.91
40372;BME280;28564;53.346;-6.554;2023-03-18T10:59:16;99705.08;;;15.64;51.44
40372;BME280;28564;53.346;-6.554;2023-03-18T11:01:47;99705.44;;;15.25;50.91
40372;BME280;28564;53.346;-6.554;2023-03-18T11:04:19;99710.82;;;15.16;51.11
40372;BME280;28564;53.346;-6.554;2023-03-18T11:06:49;99722.29;;;15.30;51.04
40372;BME280;28564;53.346;-6.554;2023-03-18T11:09:19;99719.87;;;15.15;51.19
40372;BME280;28564;53.346;-6.554;2023-03-18T11:11:47;99725.26;;;14.97;51.96
40372;BME280;28564;53.346;-6.554;2023-03-18T11:14:18;99730.03;;;14.88;52.63
40372;BME280;28564;53.346;-6.554;2023-03-18T11:16:47;99731.63;;;14.80;52.95
40372;BME280;28564;53.346;-6.554;2023-03-18T11:19:36;99731.79;;;14.72;53.53
40372;BME280;28564;53.346;-6.554;2023-03-18T11:22:16;99737.37;;;14.70;53.78
40372;BME280;28564;53.346;-6.554;2023-03-18T11:25:02;99746.96;;;14.63;53.91
40372;BME280;28564;53.346;-6.554;2023-03-18T11:27:37;99757.91;;;15.08;52.92
40372;BME280;28564;53.346;-6.554;2023-03-18T11:30:15;99760.75;;;14.90;52.62
40372;BME280;28564;53.346;-6.554;2023-03-18T11:33:11;99764.85;;;14.44;53.59
40372;BME280;28564;53.346;-6.554;2023-03-18T11:35:43;99772.60;;;14.54;53.52
40372;BME280;28564;53.346;-6.554;2023-03-18T11:38:16;99783.09;;;14.39;53.48
40372;BME280;28564;53.346;-6.554;2023-03-18T11:40:44;99783.24;;;14.94;52.20
40372;BME280;28564;53.346;-6.554;2023-03-18T11:43:16;99789.21;;;14.31;52.09
40372;BME280;28564;53.346;-6.554;2023-03-18T11:45:49;99792.21;;;14.24;52.34
40372;BME280;28564;53.346;-6.554;2023-03-18T11:48:26;99795.09;;;14.24;51.71
40372;BME280;28564;53.346;-6.554;2023-03-18T11:51:05;99806.06;;;14.16;51.67
40372;BME280;28564;53.346;-6.554;2023-03-18T11:53:43;99810.14;;;14.55;50.87
40372;BME280;28564;53.346;-6.554;2023-03-18T11:56:18;99815.18;;;13.98;50.74
40372;BME280;28564;53.346;-6.554;2023-03-18T11:58:59;99815.90;;;14.29;50.81
40372;BME280;28564;53.346;-6.554;2023-03-18T12:01:37;99819.55;;;14.28;49.87
40372;BME280;28564;53.346;-6.554;2023-03-18T12:04:22;99828.94;;;14.26;48.32
40372;BME280;28564;53.346;-6.554;2023-03-18T12:07:09;99837.35;;;14.65;48.62
40372;BME280;28564;53.346;-6.554;2023-03-18T12:09:50;99843.64;;;14.28;48.22
40372;BME280;28564;53.346;-6.554;2023-03-18T12:12:35;99846.89;;;14.32;47.90
40372;BME280;28564;53.346;-6.554;2023-03-18T12:15:17;99850.64;;;14.22;48.80
40372;BME280;28564;53.346;-6.554;2023-03-18T12:17:55;99844.46;;;14.31;48.91
40372;BME280;28564;53.346;-6.554;2023-03-18T12:20:36;99853.44;;;14.28;48.69
40372;BME280;28564;53.346;-6.554;2023-03-18T12:23:12;99866.56;;;14.05;48.87
40372;BME280;28564;53.346;-6.554;2023-03-18T12:25:55;99866.95;;;13.82;49.13
40372;BME280;28564;53.346;-6.554;2023-03-18T12:28:34;99875.68;;;13.93;49.19
40372;BME280;28564;53.346;-6.554;2023-03-18T12:31:17;99876.62;;;14.24;48.20
40372;BME280;28564;53.346;-6.554;2023-03-18T12:33:53;99882.39;;;14.03;48.48
40372;BME280;28564;53.346;-6.554;2023-03-18T12:36:35;99885.74;;;13.72;49.00
40372;BME280;28564;53.346;-6.554;2023-03-18T12:39:20;99892.54;;;13.70;50.48
40372;BME280;28564;53.346;-6.554;2023-03-18T12:42:00;99895.61;;;13.41;50.59
40372;BME280;28564;53.346;-6.554;2023-03-18T12:44:41;99896.87;;;13.30;51.22
40372;BME280;28564;53.346;-6.554;2023-03-18T12:47:12;99901.81;;;13.34;51.23
40372;BME280;28564;53.346;-6.554;2023-03-18T12:49:45;99906.42;;;13.46;51.71
40372;BME280;28564;53.346;-6.554;2023-03-18T12:52:22;99909.72;;;13.93;51.22
40372;BME280;28564;53.346;-6.554;2023-03-18T12:54:58;99911.82;;;13.88;50.80
40372;BME280;28564;53.346;-6.554;2023-03-18T12:57:36;99918.20;;;13.74;50.86
40372;BME280;28564;53.346;-6.554;2023-03-18T13:00:12;99919.57;;;13.75;50.36
40372;BME280;28564;53.346;-6.554;2023-03-18T13:02:46;99928.73;;;13.95;49.92
40372;BME280;28564;53.346;-6.554;2023-03-18T13:05:21;99928.90;;;14.00;49.12